Time;durP1;ratioP1;P1;durP2;ratioP2;P2;SDS_P1;SDS_P2;PMS_P1;PMS_P2;Temp;Humidity;BMP_temperature;BMP_pressure;BME280_temperature;BME280_humidity;BME280_pressure;Samples;Min_cycle;Max_cycle;Signal;HPM_P1;HPM_P2
2022/08/16 00:00:49;;;;;;;24.40;11.77;;;20.90;99.90;;;;;;4898742;29;20031;-87
2022/08/16 00:03:16;;;;;;;18.25;10.98;;;20.90;99.90;;;;;;4899632;29;20075;-87
2022/08/16 00:05:43;;;;;;;28.63;11.63;;;21.00;99.90;;;;;;4898533;29;20032;-87
2022/08/16 00:08:09;;;;;;;24.25;11.82;;;20.90;99.90;;;;;;4898664;29;20490;-86
2022/08/16 00:10:35;;;;;;;19.88;10.70;;;20.90;99.90;;;;;;4900000;29;20064;-87
2022/08/16 00:13:04;;;;;;;18.52;10.77;;;21.00;99.90;;;;;;4899509;29;20053;-86
2022/08/16 00:15:39;;;;;;;20.92;10.23;;;21.00;99.90;;;;;;4898744;29;20036;-87
2022/08/16 00:18:06;;;;;;;21.48;10.77;;;21.10;99.90;;;;;;4898421;29;20112;-86
2022/08/16 00:20:33;;;;;;;16.67;10.43;;;21.10;99.90;;;;;;4898084;29;20056;-86
2022/08/16 00:22:58;;;;;;;25.33;10.40;;;21.20;99.90;;;;;;4898075;29;20041;-86
2022/08/16 00:25:25;;;;;;;19.27;10.50;;;21.20;99.90;;;;;;4898189;29;20025;-86
2022/08/16 00:27:51;;;;;;;16.92;9.95;;;21.20;99.90;;;;;;4896705;29;20067;-86
2022/08/16 00:30:19;;;;;;;21.42;9.65;;;21.20;99.90;;;;;;4898175;29;20025;-86
2022/08/16 00:32:48;;;;;;;20.48;10.32;;;21.20;99.90;;;;;;4899081;29;20028;-86
2022/08/16 00:35:19;;;;;;;19.30;9.80;;;21.30;99.90;;;;;;4897523;29;20073;-86
2022/08/16 00:37:45;;;;;;;18.58;9.52;;;21.30;99.90;;;;;;4897777;29;20039;-87
2022/08/16 00:40:26;;;;;;;28.52;10.45;;;21.30;99.90;;;;;;4896363;29;20497;-87
2022/08/16 00:42:52;;;;;;;18.92;9.43;;;21.30;99.90;;;;;;4899109;29;20040;-85
2022/08/16 00:45:27;;;;;;;21.20;10.27;;;21.20;99.90;;;;;;4897865;29;20068;-85
2022/08/16 00:47:54;;;;;;;15.68;9.30;;;21.20;99.90;;;;;;4896914;29;20167;-89
2022/08/16 00:50:23;;;;;;;19.63;9.40;;;21.20;99.90;;;;;;4897985;29;20064;-86
2022/08/16 00:52:49;;;;;;;24.50;9.25;;;21.20;99.90;;;;;;4897487;29;20040;-85
2022/08/16 00:55:15;;;;;;;17.65;8.88;;;21.20;99.90;;;;;;4897733;29;20409;-85
2022/08/16 00:57:41;;;;;;;20.77;8.85;;;21.30;99.90;;;;;;4897177;29;20532;-86
2022/08/16 01:00:07;;;;;;;17.67;9.02;;;21.30;99.90;;;;;;4897473;29;20379;-85
2022/08/16 01:02:33;;;;;;;19.92;8.63;;;21.30;99.90;;;;;;4897162;29;20561;-86
2022/08/16 01:05:00;;;;;;;20.55;8.90;;;21.20;99.90;;;;;;4896028;29;20032;-86
2022/08/16 01:07:27;;;;;;;21.60;9.32;;;21.20;99.90;;;;;;4897192;29;20036;-86
2022/08/16 01:09:52;;;;;;;19.83;9.10;;;21.20;99.90;;;;;;4896951;29;20431;-86
2022/08/16 01:12:19;;;;;;;23.55;9.13;;;21.20;99.90;;;;;;4896747;29;20044;-86
2022/08/16 01:14:50;;;;;;;18.80;8.50;;;21.20;99.90;;;;;;4897045;29;20063;-87
2022/08/16 01:17:18;;;;;;;21.20;9.07;;;21.10;99.90;;;;;;4896001;29;20029;-86
2022/08/16 01:19:58;;;;;;;18.70;8.90;;;21.10;99.90;;;;;;4897052;29;20024;-86
2022/08/16 01:22:48;;;;;;;21.10;8.85;;;21.20;99.90;;;;;;4895918;29;20501;-87
2022/08/16 01:25:29;;;;;;;21.88;9.38;;;21.20;99.90;;;;;;4897631;29;20052;-86
2022/08/16 01:27:59;;;;;;;17.98;8.45;;;21.20;99.90;;;;;;4897289;29;20088;-86
2022/08/16 01:30:32;;;;;;;20.80;8.82;;;21.20;99.90;;;;;;4896236;29;20029;-86
2022/08/16 01:33:00;;;;;;;18.50;8.43;;;21.10;99.90;;;;;;4896933;29;20033;-87
2022/08/16 01:35:33;;;;;;;16.80;8.00;;;21.20;99.90;;;;;;4896907;29;20028;-86
2022/08/16 01:38:21;;;;;;;16.67;8.32;;;21.10;99.90;;;;;;4896957;29;20035;-87
2022/08/16 01:40:50;;;;;;;21.70;8.85;;;21.20;99.90;;;;;;4896642;29;20486;-87
2022/08/16 01:43:16;;;;;;;21.23;8.93;;;21.20;99.90;;;;;;4896639;29;20037;-87
2022/08/16 01:45:42;;;;;;;14.65;8.65;;;21.20;99.90;;;;;;4896569;29;20055;-86
2022/08/16 01:48:08;;;;;;;19.30;9.02;;;21.10;99.90;;;;;;4896472;29;20055;-86
2022/08/16 01:50:35;;;;;;;19.58;9.38;;;21.00;99.90;;;;;;4895117;29;20035;-87
2022/08/16 01:53:00;;;;;;;30.55;9.90;;;21.00;99.90;;;;;;4896700;29;20390;-87
2022/08/16 01:55:26;;;;;;;16.55;9.68;;;20.90;99.90;;;;;;4896390;29;20031;-87
2022/08/16 01:57:52;;;;;;;22.73;9.52;;;20.90;99.90;;;;;;4896764;29;20067;-87
2022/08/16 02:00:18;;;;;;;20.73;9.10;;;20.90;99.90;;;;;;4896201;29;20031;-87
2022/08/16 02:02:44;;;;;;;18.40;9.13;;;21.00;99.90;;;;;;4895945;29;20127;-87
2022/08/16 02:05:12;;;;;;;21.35;8.57;;;21.00;99.90;;;;;;4895023;29;20052;-87
2022/08/16 02:07:38;;;;;;;19.50;9.07;;;21.00;99.90;;;;;;4895977;29;20040;-86
2022/08/16 02:10:06;;;;;;;17.13;8.32;;;21.00;99.90;;;;;;4896494;29;20037;-86
2022/08/16 02:12:32;;;;;;;20.77;8.45;;;21.00;99.90;;;;;;4896126;29;20049;-87
2022/08/16 02:14:58;;;;;;;18.70;8.48;;;21.00;99.90;;;;;;4896223;29;20545;-85
2022/08/16 02:17:23;;;;;;;17.65;8.23;;;21.00;99.90;;;;;;4896286;29;20025;-85
2022/08/16 02:19:50;;;;;;;22.77;9.23;;;20.90;99.90;;;;;;4896107;29;20076;-85
2022/08/16 02:22:20;;;;;;;16.00;8.05;;;20.90;99.90;;;;;;4895656;29;20379;-85
2022/08/16 02:24:46;;;;;;;18.60;8.98;;;20.90;99.90;;;;;;4894272;29;20063;-85
2022/08/16 02:27:13;;;;;;;17.05;7.90;;;20.90;99.90;;;;;;4895426;29;20056;-85
2022/08/16 02:29:40;;;;;;;23.13;9.20;;;20.90;99.90;;;;;;4894123;29;20063;-85
2022/08/16 02:32:08;;;;;;;18.63;8.55;;;20.80;99.90;;;;;;4895721;29;20024;-86
2022/08/16 02:34:33;;;;;;;21.55;9.85;;;20.70;99.90;;;;;;4895722;29;20520;-86
2022/08/16 02:36:59;;;;;;;19.45;8.93;;;20.80;99.90;;;;;;4895550;29;20024;-85
2022/08/16 02:39:25;;;;;;;22.15;8.65;;;20.70;99.90;;;;;;4895816;29;20494;-85
2022/08/16 02:41:52;;;;;;;20.52;8.30;;;20.80;99.90;;;;;;4895480;29;20048;-85
2022/08/16 02:44:18;;;;;;;20.88;8.93;;;20.80;99.90;;;;;;4895787;29;20027;-85
2022/08/16 02:46:44;;;;;;;20.70;9.05;;;20.70;99.90;;;;;;4895231;29;20033;-85
2022/08/16 02:49:10;;;;;;;19.63;10.57;;;20.70;99.90;;;;;;4895405;29;20035;-85
2022/08/16 02:51:36;;;;;;;22.63;10.80;;;20.70;99.90;;;;;;4895635;29;20029;-85
2022/08/16 02:54:03;;;;;;;23.80;10.60;;;20.70;99.90;;;;;;4895435;29;20028;-86
2022/08/16 02:56:29;;;;;;;24.45;11.75;;;20.60;99.90;;;;;;4894287;29;20025;-85
2022/08/16 02:58:55;;;;;;;23.95;12.15;;;20.60;99.90;;;;;;4895198;29;20028;-85
2022/08/16 03:01:25;;;;;;;24.17;12.35;;;20.60;99.90;;;;;;4895075;29;20382;-85
2022/08/16 03:03:53;;;;;;;24.33;11.40;;;20.50;99.90;;;;;;4895223;29;20505;-85
2022/08/16 03:06:20;;;;;;;23.02;10.70;;;20.50;99.90;;;;;;4895102;29;20029;-85
2022/08/16 03:08:47;;;;;;;28.08;11.68;;;20.50;99.90;;;;;;4894996;29;20033;-85
2022/08/16 03:11:12;;;;;;;27.25;11.55;;;20.50;99.90;;;;;;4896100;29;20104;-85
2022/08/16 03:13:39;;;;;;;24.52;11.82;;;20.50;99.90;;;;;;4897738;29;20132;-86
2022/08/16 03:16:09;;;;;;;24.80;11.48;;;20.50;99.90;;;;;;4899783;29;20107;-85
2022/08/16 03:18:34;;;;;;;21.77;11.10;;;20.60;99.90;;;;;;4899605;29;20029;-85
2022/08/16 03:21:00;;;;;;;24.90;11.95;;;20.60;99.90;;;;;;4899135;29;20038;-84
2022/08/16 03:23:26;;;;;;;22.50;11.65;;;20.60;99.90;;;;;;4899184;29;20111;-85
2022/08/16 03:25:52;;;;;;;25.92;11.95;;;20.70;99.90;;;;;;4899940;29;20044;-85
2022/08/16 03:28:19;;;;;;;24.35;10.65;;;20.60;99.90;;;;;;4899672;29;20032;-85
2022/08/16 03:30:46;;;;;;;24.95;12.20;;;20.70;99.90;;;;;;4899301;29;20117;-85
2022/08/16 03:33:12;;;;;;;21.42;11.13;;;20.70;99.90;;;;;;4898815;29;20205;-85
2022/08/16 03:35:38;;;;;;;25.65;11.75;;;20.70;99.90;;;;;;4898918;29;20154;-85
2022/08/16 03:38:08;;;;;;;26.95;10.65;;;20.70;99.90;;;;;;4897635;29;20025;-85
2022/08/16 03:40:35;;;;;;;28.20;10.57;;;20.80;99.90;;;;;;4897875;29;20036;-85
2022/08/16 03:43:04;;;;;;;24.08;10.10;;;20.90;99.90;;;;;;4899244;29;20060;-85
2022/08/16 03:45:32;;;;;;;23.55;11.25;;;20.80;99.90;;;;;;4899114;29;20021;-85
2022/08/16 03:47:59;;;;;;;18.25;9.50;;;20.90;99.90;;;;;;4899073;29;20036;-85
2022/08/16 03:50:25;;;;;;;20.95;10.68;;;20.80;99.90;;;;;;4899074;29;20020;-85
2022/08/16 03:52:51;;;;;;;21.50;10.57;;;20.80;99.90;;;;;;4898609;29;20525;-84
2022/08/16 03:55:16;;;;;;;23.15;10.38;;;20.80;99.90;;;;;;4897560;29;20024;-85
2022/08/16 03:57:43;;;;;;;24.73;11.10;;;20.70;99.90;;;;;;4897570;29;20408;-85
2022/08/16 04:00:19;;;;;;;23.63;10.20;;;20.80;99.90;;;;;;4897623;29;20051;-85
2022/08/16 04:02:45;;;;;;;20.05;10.43;;;20.70;99.90;;;;;;4898656;29;20513;-84
2022/08/16 04:05:13;;;;;;;25.38;10.15;;;20.70;99.90;;;;;;4898806;29;20035;-85
2022/08/16 04:07:39;;;;;;;27.70;10.32;;;20.70;99.90;;;;;;4897224;29;20068;-85
2022/08/16 04:10:07;;;;;;;17.08;9.80;;;20.70;99.90;;;;;;4897040;29;20052;-85
2022/08/16 04:12:35;;;;;;;23.35;11.13;;;20.70;99.90;;;;;;4898484;29;20045;-85
2022/08/16 04:15:03;;;;;;;29.00;10.30;;;20.60;99.90;;;;;;4898466;29;20060;-85
2022/08/16 04:17:29;;;;;;;29.00;10.73;;;20.60;99.90;;;;;;4896721;29;20609;-85
2022/08/16 04:19:56;;;;;;;22.75;11.05;;;20.60;99.90;;;;;;4898039;29;20103;-85
2022/08/16 04:22:21;;;;;;;18.13;9.57;;;20.50;99.90;;;;;;4897705;29;20040;-85
2022/08/16 04:24:47;;;;;;;21.00;10.15;;;20.40;99.90;;;;;;4896545;29;20447;-85
2022/08/16 04:27:13;;;;;;;17.65;8.85;;;20.40;99.90;;;;;;4898093;29;20112;-88
2022/08/16 04:29:42;;;;;;;20.05;9.02;;;20.50;99.90;;;;;;4905877;29;20209;-91
2022/08/16 04:32:08;;;;;;;23.95;10.02;;;20.60;99.90;;;;;;4910205;29;20025;-92
2022/08/16 04:34:36;;;;;;;20.23;10.00;;;20.60;99.90;;;;;;4899433;29;20453;-88
2022/08/16 04:37:02;;;;;;;19.30;9.73;;;20.60;99.90;;;;;;4897930;29;20028;-87
2022/08/16 04:39:31;;;;;;;24.05;10.65;;;20.60;99.90;;;;;;4899546;29;20028;-88
2022/08/16 04:41:57;;;;;;;22.77;9.73;;;20.70;99.90;;;;;;4899928;29;20225;-88
2022/08/16 04:44:23;;;;;;;20.70;10.00;;;20.70;99.90;;;;;;4905940;29;20199;-87
2022/08/16 04:46:49;;;;;;;25.50;9.30;;;20.70;99.90;;;;;;4901976;29;20308;-87
2022/08/16 04:49:16;;;;;;;20.70;8.68;;;20.80;99.90;;;;;;4903668;29;20348;-87
2022/08/16 04:51:42;;;;;;;22.80;9.45;;;20.80;99.90;;;;;;4902918;29;20039;-87
2022/08/16 04:54:09;;;;;;;27.63;10.02;;;20.80;99.90;;;;;;4906729;29;20117;-87
2022/08/16 04:56:35;;;;;;;27.60;10.43;;;20.80;99.90;;;;;;4905088;29;20031;-86
2022/08/16 04:59:01;;;;;;;24.38;9.95;;;20.70;99.90;;;;;;4905570;29;20057;-87
2022/08/16 05:01:27;;;;;;;23.17;10.73;;;20.70;99.90;;;;;;4909270;29;20041;-88
2022/08/16 05:03:53;;;;;;;22.90;10.05;;;20.70;99.90;;;;;;4913519;29;20024;-86
2022/08/16 05:06:19;;;;;;;20.08;10.38;;;20.70;99.90;;;;;;4918253;29;20028;-87
2022/08/16 05:08:45;;;;;;;24.23;10.18;;;20.70;99.90;;;;;;4914352;29;20386;-88
2022/08/16 05:11:12;;;;;;;24.77;10.43;;;20.70;99.90;;;;;;4910901;29;20276;-88
2022/08/16 05:13:41;;;;;;;24.63;10.10;;;20.70;99.90;;;;;;4912664;29;20070;-86
2022/08/16 05:16:08;;;;;;;20.05;10.35;;;20.80;99.90;;;;;;4911787;29;20052;-88
2022/08/16 05:18:35;;;;;;;22.83;9.85;;;20.80;99.90;;;;;;4915272;29;20021;-90
2022/08/16 05:21:02;;;;;;;20.95;10.13;;;20.80;99.90;;;;;;4916606;29;20347;-89
2022/08/16 05:23:28;;;;;;;19.85;9.57;;;20.80;99.90;;;;;;4914708;29;20259;-87
2022/08/16 05:25:54;;;;;;;22.73;10.93;;;20.80;99.90;;;;;;4911136;29;20029;-89
2022/08/16 05:28:19;;;;;;;23.38;10.43;;;20.80;99.90;;;;;;4908523;29;20507;-90
2022/08/16 05:30:46;;;;;;;24.35;9.88;;;20.80;99.90;;;;;;4907616;29;20388;-88
2022/08/16 05:33:12;;;;;;;23.23;9.55;;;20.70;99.90;;;;;;4909307;29;20029;-87
2022/08/16 05:35:38;;;;;;;27.77;9.20;;;20.70;99.90;;;;;;4910808;29;20036;-88
2022/08/16 05:38:03;;;;;;;30.13;9.45;;;20.70;99.90;;;;;;4904267;29;20029;-88
2022/08/16 05:40:29;;;;;;;21.60;9.52;;;20.80;99.90;;;;;;4902478;29;20473;-88
2022/08/16 05:42:55;;;;;;;19.13;8.98;;;20.80;99.90;;;;;;4899502;29;20052;-88
2022/08/16 05:45:21;;;;;;;25.35;9.75;;;20.90;99.90;;;;;;4896828;29;20032;-87
2022/08/16 05:47:47;;;;;;;24.88;9.40;;;20.90;99.90;;;;;;4895840;29;20032;-88
2022/08/16 05:50:12;;;;;;;20.85;8.52;;;21.00;99.90;;;;;;4896647;29;20485;-88
2022/08/16 05:52:38;;;;;;;30.15;9.38;;;21.00;99.90;;;;;;4896587;29;20064;-88
2022/08/16 05:55:04;;;;;;;19.08;8.95;;;21.00;99.90;;;;;;4896654;29;20029;-90
2022/08/16 05:57:30;;;;;;;24.42;10.23;;;21.00;99.90;;;;;;4895458;29;20031;-88
2022/08/16 05:59:56;;;;;;;22.98;9.50;;;21.00;99.90;;;;;;4894710;29;20062;-88
2022/08/16 06:02:26;;;;;;;18.23;9.75;;;21.00;99.90;;;;;;4895038;29;20071;-87
2022/08/16 06:04:52;;;;;;;24.50;10.07;;;21.00;99.90;;;;;;4894588;29;20108;-88
2022/08/16 06:07:18;;;;;;;23.05;9.85;;;21.00;99.90;;;;;;4894833;29;20500;-88
2022/08/16 06:09:43;;;;;;;22.23;10.73;;;21.00;99.90;;;;;;4894291;29;20020;-87
2022/08/16 06:12:14;;;;;;;24.42;12.07;;;21.00;99.90;;;;;;4893831;29;20054;-87
2022/08/16 06:14:40;;;;;;;23.25;12.48;;;21.00;99.90;;;;;;4896126;29;20084;-87
2022/08/16 06:17:06;;;;;;;18.70;13.82;;;21.00;99.90;;;;;;4896109;29;20032;-87
2022/08/16 06:19:32;;;;;;;22.23;14.20;;;20.90;99.90;;;;;;4894627;29;20025;-87
2022/08/16 06:22:00;;;;;;;21.83;13.68;;;20.90;99.90;;;;;;4895639;29;20047;-88
2022/08/16 06:24:25;;;;;;;27.58;14.73;;;20.80;99.90;;;;;;4895576;29;20029;-88
2022/08/16 06:26:51;;;;;;;22.40;13.80;;;20.80;99.90;;;;;;4895667;29;20084;-88
2022/08/16 06:29:17;;;;;;;19.95;13.63;;;20.90;99.90;;;;;;4894671;29;20116;-87
2022/08/16 06:31:42;;;;;;;24.35;14.88;;;20.90;99.90;;;;;;4896144;29;20414;-87
2022/08/16 06:34:08;;;;;;;22.17;14.38;;;20.90;99.90;;;;;;4895895;29;20112;-88
2022/08/16 06:36:34;;;;;;;23.92;14.90;;;20.80;99.90;;;;;;4895414;29;20025;-87
2022/08/16 06:38:59;;;;;;;27.38;15.55;;;20.80;99.90;;;;;;4895627;29;20021;-87
2022/08/16 06:41:25;;;;;;;23.73;15.27;;;20.80;99.90;;;;;;4896122;29;20029;-88
2022/08/16 06:43:51;;;;;;;25.75;14.80;;;20.80;99.90;;;;;;4895597;29;20497;-87
2022/08/16 06:46:36;;;;;;;31.23;14.98;;;20.80;99.90;;;;;;4894619;29;20029;-87
2022/08/16 06:49:03;;;;;;;23.33;14.98;;;20.80;99.90;;;;;;4895496;29;20040;-87
2022/08/16 06:51:29;;;;;;;25.15;15.23;;;20.80;99.90;;;;;;4895272;29;20029;-88
2022/08/16 06:53:55;;;;;;;25.30;14.48;;;20.80;99.90;;;;;;4894454;29;20033;-87
2022/08/16 06:56:20;;;;;;;23.27;14.43;;;20.80;99.90;;;;;;4894154;29;20116;-88
2022/08/16 06:58:46;;;;;;;28.13;16.50;;;20.90;99.90;;;;;;4894435;29;20044;-88
2022/08/16 07:01:12;;;;;;;23.23;14.85;;;21.00;99.90;;;;;;4895631;29;20074;-87
2022/08/16 07:03:38;;;;;;;22.35;14.30;;;21.00;99.90;;;;;;4895520;29;20533;-87
2022/08/16 07:06:04;;;;;;;23.10;14.93;;;21.10;99.90;;;;;;4895607;29;20024;-87
2022/08/16 07:08:30;;;;;;;22.45;14.52;;;21.20;99.90;;;;;;4895317;29;20370;-87
2022/08/16 07:10:57;;;;;;;23.35;15.13;;;21.20;99.90;;;;;;4895448;29;20028;-87
2022/08/16 07:13:23;;;;;;;19.55;14.75;;;21.20;99.90;;;;;;4895345;29;20049;-87
2022/08/16 07:15:49;;;;;;;24.20;15.13;;;21.20;99.90;;;;;;4895800;29;20031;-88
2022/08/16 07:18:18;;;;;;;23.65;14.52;;;21.30;99.90;;;;;;4895589;29;20032;-88
2022/08/16 07:20:45;;;;;;;30.85;13.85;;;21.20;99.90;;;;;;4895721;29;20029;-88
2022/08/16 07:23:11;;;;;;;23.45;13.27;;;21.20;99.90;;;;;;4895467;29;20107;-87
2022/08/16 07:25:36;;;;;;;22.20;13.50;;;21.30;99.90;;;;;;4895377;29;20438;-88
2022/08/16 07:28:05;;;;;;;23.02;12.98;;;21.30;99.90;;;;;;4893779;29;20043;-87
2022/08/16 07:30:32;;;;;;;21.75;12.10;;;21.50;99.90;;;;;;4895090;29;20100;-87
2022/08/16 07:32:58;;;;;;;23.48;12.52;;;21.50;99.90;;;;;;4893823;29;20033;-87
2022/08/16 07:35:24;;;;;;;25.85;12.93;;;21.50;99.90;;;;;;4893910;29;20064;-89
2022/08/16 07:37:50;;;;;;;24.65;12.30;;;21.50;99.90;;;;;;4895094;29;20037;-87
2022/08/16 07:40:16;;;;;;;22.58;11.38;;;21.60;99.90;;;;;;4895312;29;20025;-88
2022/08/16 07:42:42;;;;;;;18.52;10.85;;;21.60;99.90;;;;;;4895359;29;20056;-87
2022/08/16 07:45:08;;;;;;;25.88;11.30;;;21.80;99.90;;;;;;4893823;29;20052;-87
2022/08/16 07:47:34;;;;;;;19.83;10.85;;;21.90;99.90;;;;;;4894855;29;20033;-88
2022/08/16 07:50:01;;;;;;;20.27;10.52;;;22.20;99.90;;;;;;4894455;29;20111;-87
2022/08/16 07:52:26;;;;;;;16.58;8.80;;;22.50;99.90;;;;;;4894827;29;20036;-87
2022/08/16 07:54:52;;;;;;;18.77;9.18;;;22.70;99.90;;;;;;4895107;29;20489;-87
2022/08/16 07:57:18;;;;;;;19.48;9.73;;;22.80;99.90;;;;;;4896373;29;20032;-87
2022/08/16 07:59:44;;;;;;;18.30;10.75;;;22.90;99.90;;;;;;4898917;29;20025;-87
2022/08/16 08:02:11;;;;;;;16.70;9.95;;;22.90;99.90;;;;;;4897590;29;20184;-87
2022/08/16 08:04:37;;;;;;;19.45;10.73;;;23.00;99.90;;;;;;4898573;29;20492;-87
2022/08/16 08:07:03;;;;;;;21.33;9.25;;;23.00;99.90;;;;;;4898334;29;20033;-87
2022/08/16 08:09:28;;;;;;;21.13;10.73;;;22.80;99.90;;;;;;4898642;29;20363;-87
2022/08/16 08:11:57;;;;;;;14.07;10.27;;;23.00;99.90;;;;;;4898402;29;20036;-87
2022/08/16 08:14:23;;;;;;;13.57;8.73;;;23.10;99.90;;;;;;4897113;29;20033;-88
2022/08/16 08:16:49;;;;;;;16.13;8.63;;;23.30;99.90;;;;;;4897018;29;20047;-87
2022/08/16 08:19:15;;;;;;;19.35;9.57;;;23.30;99.90;;;;;;4898373;29;20031;-88
2022/08/16 08:21:42;;;;;;;18.35;8.65;;;23.20;99.90;;;;;;4897854;29;20031;-88
2022/08/16 08:24:09;;;;;;;20.52;9.15;;;23.30;99.90;;;;;;4898517;29;20068;-87
2022/08/16 08:26:36;;;;;;;14.63;6.80;;;23.40;99.90;;;;;;4898173;29;20032;-88
2022/08/16 08:29:03;;;;;;;12.48;5.82;;;23.30;99.90;;;;;;4897994;29;20053;-87
2022/08/16 08:31:29;;;;;;;15.23;7.35;;;23.00;99.90;;;;;;4898362;29;20028;-87
2022/08/16 08:33:55;;;;;;;25.23;8.13;;;23.00;99.90;;;;;;4898281;29;20383;-87
2022/08/16 08:36:30;;;;;;;18.70;7.82;;;22.80;99.90;;;;;;4898038;29;20412;-87
2022/08/16 08:38:56;;;;;;;21.02;7.55;;;22.70;99.90;;;;;;4896738;29;20025;-88
2022/08/16 08:41:24;;;;;;;16.88;7.60;;;22.50;99.90;;;;;;4898119;29;20096;-88
2022/08/16 08:43:50;;;;;;;20.20;7.35;;;22.50;99.90;;;;;;4898210;29;20028;-87
2022/08/16 08:46:16;;;;;;;19.75;7.07;;;22.50;99.90;;;;;;4896763;29;20418;-87
2022/08/16 08:48:43;;;;;;;15.30;8.65;;;22.50;99.90;;;;;;4897967;29;20052;-87
2022/08/16 08:51:09;;;;;;;25.33;10.32;;;22.30;99.90;;;;;;4897481;29;20333;-87
2022/08/16 08:53:36;;;;;;;23.52;10.32;;;22.20;99.90;;;;;;4896200;29;20293;-87
2022/08/16 08:56:05;;;;;;;22.30;11.85;;;22.20;99.90;;;;;;4897719;29;20188;-87
2022/08/16 08:58:32;;;;;;;21.17;10.77;;;22.10;99.90;;;;;;4897957;29;20032;-87
2022/08/16 09:00:59;;;;;;;21.58;10.55;;;21.90;99.90;;;;;;4897773;29;20115;-87
2022/08/16 09:03:24;;;;;;;17.58;9.52;;;21.80;99.90;;;;;;4898026;29;20040;-87
2022/08/16 09:05:50;;;;;;;21.40;9.27;;;21.70;99.90;;;;;;4896470;29;20027;-87
2022/08/16 09:08:16;;;;;;;18.88;9.18;;;21.80;99.90;;;;;;4897007;29;20043;-87
2022/08/16 09:10:42;;;;;;;19.50;7.82;;;21.80;99.90;;;;;;4896688;29;20397;-87
2022/08/16 09:13:09;;;;;;;20.98;7.72;;;21.80;99.90;;;;;;4896931;29;20090;-86
2022/08/16 09:15:35;;;;;;;19.98;8.55;;;21.80;99.90;;;;;;4897127;29;20025;-87
2022/08/16 09:18:02;;;;;;;22.13;9.15;;;21.80;99.90;;;;;;4895880;29;20033;-87
2022/08/16 09:20:29;;;;;;;18.67;10.40;;;21.70;99.90;;;;;;4897355;29;20489;-87
2022/08/16 09:22:55;;;;;;;24.73;14.05;;;21.60;99.90;;;;;;4895494;29;20041;-88
2022/08/16 09:25:22;;;;;;;14.73;7.45;;;21.50;99.90;;;;;;4897267;29;20088;-86
2022/08/16 09:27:48;;;;;;;18.20;8.50;;;21.10;99.90;;;;;;4897097;29;20048;-87
2022/08/16 09:30:14;;;;;;;20.15;12.32;;;20.80;99.90;;;;;;4896937;29;20024;-86
2022/08/16 09:32:40;;;;;;;25.70;13.45;;;20.80;99.90;;;;;;4896759;29;20021;-87
2022/08/16 09:35:09;;;;;;;35.67;15.55;;;20.70;99.90;;;;;;4896742;29;20040;-91
2022/08/16 09:37:35;;;;;;;35.55;16.05;;;20.80;99.90;;;;;;4904853;29;20037;-89
2022/08/16 09:40:02;;;;;;;26.85;14.95;;;20.80;99.90;;;;;;4907239;29;20160;-89
2022/08/16 09:42:28;;;;;;;26.77;16.13;;;20.60;99.90;;;;;;4899617;29;20040;-89
2022/08/16 09:44:54;;;;;;;36.20;15.77;;;20.50;99.90;;;;;;4898438;29;20036;-87
2022/08/16 09:47:20;;;;;;;26.48;15.23;;;20.50;99.90;;;;;;4897743;29;20105;-89
2022/08/16 09:49:46;;;;;;;28.08;15.30;;;20.50;99.90;;;;;;4898238;29;20171;-89
2022/08/16 09:52:12;;;;;;;38.38;14.38;;;20.70;99.90;;;;;;4902969;29;20296;-87
2022/08/16 09:54:39;;;;;;;19.48;9.65;;;20.60;99.90;;;;;;4895364;29;20606;-88
2022/08/16 09:57:06;;;;;;;17.15;7.82;;;20.60;99.90;;;;;;4896459;29;20070;-88
2022/08/16 09:59:32;;;;;;;18.00;9.75;;;20.70;99.90;;;;;;4899910;29;20024;-90
2022/08/16 10:01:59;;;;;;;17.55;8.43;;;20.70;99.90;;;;;;4901628;29;20280;-90
2022/08/16 10:04:25;;;;;;;12.40;6.75;;;21.10;99.90;;;;;;4896753;29;20028;-93
2022/08/16 10:06:57;;;;;;;15.40;6.07;;;21.30;99.90;;;;;;4895379;29;20358;-89
2022/08/16 10:09:24;;;;;;;9.93;5.32;;;21.50;99.90;;;;;;4899678;29;20119;-90
2022/08/16 10:14:34;;;;;;;15.15;6.78;;;21.50;99.90;;;;;;4896935;29;20047;-91
2022/08/16 10:17:03;;;;;;;16.55;6.88;;;21.60;99.90;;;;;;4895964;29;20032;-89
2022/08/16 10:19:30;;;;;;;10.48;6.00;;;21.70;99.90;;;;;;4898725;29;20031;-91
2022/08/16 10:21:56;;;;;;;13.02;6.00;;;21.70;99.90;;;;;;4898063;29;20068;-91
2022/08/16 10:24:22;;;;;;;14.02;5.43;;;21.80;99.90;;;;;;4896745;29;20056;-90
2022/08/16 10:26:48;;;;;;;10.63;5.45;;;21.80;99.90;;;;;;4897201;29;20036;-90
2022/08/16 10:29:15;;;;;;;12.65;5.72;;;22.00;99.90;;;;;;4896319;29;20028;-88
2022/08/16 10:49:56;;;;;;;13.82;6.53;;;21.70;99.90;;;;;;4688372;30;20171;-92
2022/08/16 10:52:22;;;;;;;10.80;5.78;;;21.70;99.90;;;;;;4707362;30;20044;-91
2022/08/16 10:54:48;;;;;;;13.75;6.75;;;21.60;99.90;;;;;;4859606;29;20036;-91
2022/08/16 10:57:14;;;;;;;13.15;6.35;;;21.40;99.90;;;;;;4896264;29;20029;-91
2022/08/16 10:59:40;;;;;;;11.40;6.35;;;21.40;99.90;;;;;;4896691;29;20017;-91
2022/08/16 11:02:07;;;;;;;12.40;6.30;;;21.50;99.90;;;;;;4894969;29;20028;-92
2022/08/16 11:04:33;;;;;;;16.08;7.32;;;21.40;99.90;;;;;;4895186;29;20032;-91
2022/08/16 11:06:59;;;;;;;14.77;7.32;;;21.40;99.90;;;;;;4896083;29;20273;-91
2022/08/16 11:09:25;;;;;;;16.48;8.32;;;21.30;99.90;;;;;;4896006;29;20283;-91
2022/08/16 11:11:51;;;;;;;14.52;7.72;;;21.30;99.90;;;;;;4895652;29;20527;-88
2022/08/16 11:14:17;;;;;;;11.07;6.47;;;21.20;99.90;;;;;;4895935;29;20393;-90
2022/08/16 11:16:43;;;;;;;15.10;7.15;;;21.00;99.90;;;;;;4893636;29;20529;-88
2022/08/16 11:19:09;;;;;;;13.02;7.43;;;20.90;99.90;;;;;;4895200;29;20032;-88
2022/08/16 11:21:38;;;;;;;12.88;7.25;;;20.90;99.90;;;;;;4894957;29;20490;-88
2022/08/16 11:24:04;;;;;;;11.30;6.63;;;20.70;99.90;;;;;;4893816;29;20056;-91
2022/08/16 11:26:30;;;;;;;13.27;7.05;;;20.60;99.90;;;;;;4893778;29;20021;-90
2022/08/16 11:28:57;;;;;;;15.15;8.70;;;20.60;99.90;;;;;;4895048;29;20501;-91
2022/08/16 11:31:23;;;;;;;13.93;7.55;;;20.50;99.90;;;;;;4895467;29;20197;-92
2022/08/16 11:33:49;;;;;;;13.15;8.18;;;20.50;99.90;;;;;;4897506;29;20032;-90
2022/08/16 11:36:15;;;;;;;14.75;8.50;;;20.40;99.90;;;;;;4899020;29;20490;-89
2022/08/16 11:38:41;;;;;;;16.60;9.68;;;20.30;99.90;;;;;;4898874;29;20028;-90
2022/08/16 11:41:07;;;;;;;15.40;9.30;;;20.20;99.90;;;;;;4899001;29;20020;-88
2022/08/16 11:43:36;;;;;;;16.83;9.82;;;20.30;99.90;;;;;;4897529;29;20135;-91
2022/08/16 11:46:06;;;;;;;17.98;8.85;;;20.30;99.90;;;;;;4898804;29;20029;-89
2022/08/16 11:48:32;;;;;;;18.85;9.10;;;20.30;99.90;;;;;;4897563;29;20119;-90
2022/08/16 11:50:59;;;;;;;13.52;8.57;;;20.30;99.90;;;;;;4897403;29;20031;-90
2022/08/16 11:53:27;;;;;;;13.60;8.10;;;20.50;99.90;;;;;;4898407;29;20495;-89
2022/08/16 11:55:53;;;;;;;10.77;7.93;;;20.80;99.90;;;;;;4898861;29;20044;-89
2022/08/16 11:58:20;;;;;;;12.27;7.85;;;21.20;99.90;;;;;;4897336;29;20116;-90
2022/08/16 12:00:47;;;;;;;7.70;6.60;;;21.70;99.90;;;;;;4898424;29;20029;-89
2022/08/16 12:03:14;;;;;;;9.63;6.70;;;22.10;99.90;;;;;;4898469;29;20469;-90
2022/08/16 12:05:42;;;;;;;8.43;5.97;;;22.60;99.90;;;;;;4898468;29;20028;-88
2022/08/16 12:08:09;;;;;;;10.15;6.07;;;22.80;99.90;;;;;;4898148;29;20135;-89
2022/08/16 12:10:37;;;;;;;8.23;5.10;;;23.00;99.90;;;;;;4898061;29;20071;-90
2022/08/16 12:13:04;;;;;;;8.15;5.35;;;23.30;99.90;;;;;;4897872;29;20045;-86
2022/08/16 12:15:30;;;;;;;8.57;4.70;;;23.50;99.90;;;;;;4898499;29;20148;-85
2022/08/16 12:17:56;;;;;;;8.02;4.97;;;23.70;99.90;;;;;;4898373;29;20439;-86
2022/08/16 12:20:27;;;;;;;8.48;4.70;;;23.90;99.90;;;;;;4898347;29;20096;-86
2022/08/16 12:22:54;;;;;;;6.20;4.80;;;24.10;99.90;;;;;;4897844;29;20041;-89
2022/08/16 12:25:22;;;;;;;7.13;4.30;;;24.50;99.90;;;;;;4898265;29;20072;-89
2022/08/16 12:27:49;;;;;;;10.65;4.75;;;24.80;99.90;;;;;;4898138;29;20397;-88
2022/08/16 12:30:18;;;;;;;10.65;4.88;;;24.90;99.90;;;;;;4897941;29;20029;-88
2022/08/16 12:32:44;;;;;;;8.43;4.05;;;24.90;99.90;;;;;;4896574;29;20045;-88
2022/08/16 12:35:14;;;;;;;8.13;4.88;;;25.00;99.90;;;;;;4898128;29;20048;-87
2022/08/16 12:37:42;;;;;;;5.88;3.92;;;25.10;99.90;;;;;;4898144;29;20039;-88
2022/08/16 12:40:13;;;;;;;12.23;5.05;;;25.40;99.90;;;;;;4898049;29;20020;-88
2022/08/16 12:42:38;;;;;;;9.20;5.22;;;25.50;99.90;;;;;;4897632;29;20065;-88
2022/08/16 12:45:08;;;;;;;10.98;4.93;;;25.70;99.90;;;;;;4896844;29;20028;-88
2022/08/16 12:50:19;;;;;;;8.98;4.60;;;26.20;99.90;;;;;;4901512;29;20083;-87
2022/08/16 12:52:44;;;;;;;10.57;4.85;;;26.40;99.90;;;;;;4898025;29;20083;-88
2022/08/16 12:55:10;;;;;;;6.97;4.00;;;26.80;99.90;;;;;;4897716;29;20021;-88